Airfield :
LOGIN :

Register | Disclaimer

   EN    FR    IT 

 










Legend :    VFR   Marginal VFR   IFR   Intensive IFR   Very Intensive IFR
Visi :
Ceiling :
>= 8 km
>= 3000ft
5 to 8 km
1000 to 3000 ft
1500m to 5 km
500 to 1000 ft
800 to 1500m
200 to 500 ft
< 800m
< 200 ft
Symbols :   Thunderstorms  Fog  Heavy snow  Heavy precipitations  Wind > 20 kt
SIGMETs :     Misc.  Thunderstorms  Icing  Turbulence  Mountain Waves  Volcanic Ashes







- Airport Elevation : 256 ft
- IATA code : CFR
- Download approach charts


LFRK - Caen

CURRENT METAR :
  • 211430Z AUTO 34007KT 300V020 9999 FEW024 22/15 Q1015 NOSIG

EXPIRED METARs :
  • 211400Z AUTO 35008KT 310V020 9999 FEW022 BKN086 21/15 Q1015 NOSIG
  • 211330Z AUTO 34009KT 310V010 9999 FEW026 SCT082 22/15 Q1015 NOSIG
  • 211300Z AUTO 35008KT 300V030 9999 FEW027 BKN076 22/15 Q1015 NOSIG
  • 211230Z AUTO 34010KT 300V360 9999 FEW024 BKN074 22/15 Q1015 NOSIG
  • 211200Z AUTO 36008KT 310V030 9999 SCT023 SCT034 OVC076 22/15 Q1015 NOSIG

TAF TAF LFRK
Valid from the 21 at 15:00 until the 22 at 00:00 UTC


211400Z 2115/2124 35008KT 9999 SCT030
BECMG 2120/2122 VRB03KT
Met : +33 2 31 26 68 11
No reported NOTAMs for that airfield.



MET'MAP, your aeronautical weather chart ! - Copyright ORBIFLY December 2007 - Disclaimer

ORBIFLY MET'MAP TEAM :

Programming & Development : Alexandra Zaïnal
Concept & Development : Baudouin d'Aumeries
Co-Development & Prog : Marc-Olivier Méhu
Technical & hardware support : Manuel Goepfert

Contact : metmap@orbifly.com




SOURCES & CREDITS :

   NOAA